Time;durP1;ratioP1;P1;durP2;ratioP2;P2;SDS_P1;SDS_P2;PMS_P1;PMS_P2;Temp;Humidity;BMP_temperature;BMP_pressure;BME280_temperature;BME280_humidity;BME280_pressure;Samples;Min_cycle;Max_cycle;Signal;HPM_P1;HPM_P2
2022/08/11 00:01:55;;;;;;;7.25;5.10;;;;;;;20.38;60.01;101440.63;5076016;28;20045;-77
2022/08/11 00:04:25;;;;;;;8.70;5.10;;;;;;;20.37;59.84;101437.09;5078148;28;20049;-78
2022/08/11 00:06:53;;;;;;;7.97;5.22;;;;;;;20.29;60.19;101441.81;5077837;28;20082;-79
2022/08/11 00:09:23;;;;;;;5.60;4.78;;;;;;;20.27;60.52;101438.53;5077684;28;20177;-79
2022/08/11 00:11:52;;;;;;;5.30;4.80;;;;;;;20.21;60.44;101430.34;5063242;28;20061;-79
2022/08/11 00:14:21;;;;;;;9.13;5.20;;;;;;;20.18;61.38;101436.06;5057291;28;20057;-79
2022/08/11 00:16:58;;;;;;;6.57;5.20;;;;;;;20.21;60.93;101434.84;5071328;28;20076;-79
2022/08/11 00:19:27;;;;;;;8.13;5.10;;;;;;;20.24;61.00;101436.28;5077498;28;20484;-78
2022/08/11 00:21:55;;;;;;;9.15;5.10;;;;;;;20.20;61.07;101444.66;5077738;28;20529;-78
2022/08/11 00:24:23;;;;;;;6.82;5.30;;;;;;;20.10;60.93;101433.56;5058988;28;20068;-78
2022/08/11 00:26:51;;;;;;;8.50;5.15;;;;;;;20.07;61.34;101435.81;5055726;28;20522;-78
2022/08/11 00:29:19;;;;;;;5.95;5.00;;;;;;;20.02;62.08;101440.88;5056843;28;20073;-78
2022/08/11 00:31:49;;;;;;;6.97;4.80;;;;;;;20.00;62.08;101443.75;5071360;28;20102;-79
2022/08/11 00:34:21;;;;;;;7.57;4.82;;;;;;;19.93;62.31;101442.88;5079173;28;20052;-78
2022/08/11 00:36:51;;;;;;;8.95;5.60;;;;;;;19.82;62.38;101438.97;5078628;28;20391;-78
2022/08/11 00:39:21;;;;;;;7.63;6.00;;;;;;;19.78;62.36;101442.22;5077719;28;20096;-79
2022/08/11 00:41:59;;;;;;;9.43;5.20;;;;;;;19.85;62.09;101429.78;5063408;28;20091;-79
2022/08/11 00:44:40;;;;;;;10.23;5.25;;;;;;;19.93;62.08;101434.91;5056565;28;20084;-81
2022/08/11 00:47:25;;;;;;;9.85;5.25;;;;;;;19.69;62.73;101409.69;5112878;22;20077;-81
2022/08/11 00:50:14;;;;;;;8.52;5.32;;;;;;;19.79;63.33;101434.06;5060475;28;20041;-79
2022/08/11 00:53:05;;;;;;;6.63;5.22;;;;;;;19.73;64.15;101444.66;5060315;28;20045;-80
2022/08/11 00:56:09;;;;;;;7.38;5.30;;;;;;;19.63;64.68;101444.19;5057384;28;20045;-80
2022/08/11 00:59:08;;;;;;;10.13;5.53;;;;;;;19.47;64.53;101430.16;5079369;28;20438;-80
2022/08/11 01:01:55;;;;;;;7.55;5.35;;;;;;;19.43;64.56;101438.72;5079404;28;20456;-79
2022/08/11 01:05:01;;;;;;;9.05;5.78;;;;;;;19.25;64.83;101410.03;5077482;28;20045;-80
2022/08/11 01:08:19;;;;;;;8.23;5.50;;;;;;;19.26;64.85;101427.59;5078497;28;20053;-79
2022/08/11 01:11:17;;;;;;;9.48;5.40;;;;;;;19.00;64.83;101412.28;5079075;28;20086;-80
2022/08/11 01:14:19;;;;;;;7.70;5.38;;;;;;;19.16;65.10;101430.56;5073422;28;20407;-78
2022/08/11 01:17:13;;;;;;;10.30;5.68;;;;;;;19.10;65.37;101427.88;5072805;28;20056;-79
2022/08/11 01:20:05;;;;;;;6.75;5.10;;;;;;;19.03;65.32;101430.47;5073220;28;20044;-79
2022/08/11 01:23:07;;;;;;;7.20;5.00;;;;;;;19.06;65.05;101431.91;5075165;28;20087;-79
2022/08/11 01:26:21;;;;;;;9.88;5.32;;;;;;;19.09;64.98;101428.88;5041315;28;20072;-79
2022/08/11 01:29:40;;;;;;;8.60;5.30;;;;;;;19.10;65.05;101435.81;5076987;28;20427;-78
2022/08/11 01:32:50;;;;;;;8.23;5.35;;;;;;;19.02;65.18;101441.28;5072348;28;20048;-79
2022/08/11 01:35:58;;;;;;;8.35;5.60;;;;;;;18.99;65.20;101431.03;5065034;28;20560;-77
2022/08/11 01:38:57;;;;;;;9.48;5.47;;;;;;;19.01;65.59;101434.31;5071453;28;20056;-78
2022/08/11 01:45:06;;;;;;;10.68;5.32;;;;;;;19.02;65.47;101433.31;5074025;28;20055;-79
2022/08/11 01:47:51;;;;;;;7.00;5.68;;;;;;;18.87;66.10;101434.25;5074481;28;20048;-78
2022/08/11 01:50:30;;;;;;;8.77;5.47;;;;;;;18.86;66.29;101432.59;5073051;28;20063;-79
2022/08/11 01:53:20;;;;;;;8.95;5.57;;;;;;;18.81;66.93;101440.28;5073010;28;20506;-78
2022/08/11 01:55:56;;;;;;;7.32;5.07;;;;;;;18.81;66.78;101436.81;5071223;28;20123;-77
2022/08/11 01:58:31;;;;;;;9.40;5.70;;;;;;;18.73;67.13;101442.25;5072164;28;20061;-79
2022/08/11 02:01:09;;;;;;;10.80;5.75;;;;;;;18.71;67.38;101450.41;5077803;28;20047;-79
2022/08/11 02:03:44;;;;;;;6.72;5.22;;;;;;;18.71;67.53;101438.97;5078693;28;20049;-79
2022/08/11 02:09:13;;;;;;;10.73;5.25;;;;;;;18.74;67.50;101454.50;5078687;28;20051;-79
2022/08/11 02:11:39;;;;;;;7.63;5.38;;;;;;;18.68;67.61;101440.16;5078311;28;20163;-79
2022/08/11 02:14:19;;;;;;;7.75;5.15;;;;;;;18.68;67.46;101444.66;5077389;28;20542;-80
2022/08/11 02:17:14;;;;;;;9.43;5.60;;;;;;;18.71;67.29;101439.78;5075248;28;20484;-80
2022/08/11 02:25:34;;;;;;;9.75;5.32;;;;;;;18.55;69.32;101438.16;5079801;28;19928;-79
2022/08/11 02:28:07;;;;;;;7.22;5.82;;;;;;;18.43;69.52;101436.22;5081825;28;20479;-80
2022/08/11 02:30:41;;;;;;;10.15;5.75;;;;;;;18.33;69.48;101446.31;5078370;28;20040;-78
2022/08/11 02:33:22;;;;;;;8.25;5.85;;;;;;;18.28;69.29;101438.09;5077594;28;20106;-79
2022/08/11 02:35:58;;;;;;;7.72;6.10;;;;;;;18.12;69.67;101429.34;5075903;28;20048;-80
2022/08/11 02:38:30;;;;;;;8.15;5.38;;;;;;;18.13;69.81;101433.63;5077000;28;20135;-78
2022/08/11 02:42:21;;;;;;;8.32;6.75;;;;;;;18.07;69.59;101436.19;5079089;28;20127;-78
2022/08/11 02:44:12;;;;;;;7.18;5.70;;;;;;;18.04;70.25;101432.09;5076647;28;20080;-79
2022/08/11 02:46:53;;;;;;;10.27;6.07;;;;;;;17.94;70.30;101434.25;5079524;28;20086;-79
2022/08/11 02:49:54;;;;;;;5.97;5.38;;;;;;;17.84;70.67;101436.34;5082319;28;20087;-78
2022/08/11 02:52:31;;;;;;;9.40;5.57;;;;;;;17.81;70.41;101440.19;5067164;28;20104;-79
2022/08/11 02:55:29;;;;;;;7.85;5.60;;;;;;;17.74;70.69;101427.84;5061477;28;20045;-79
2022/08/11 02:58:11;;;;;;;10.88;6.18;;;;;;;17.77;70.11;101430.97;5066150;28;20058;-77
2022/08/11 03:00:47;;;;;;;8.38;5.60;;;;;;;17.81;70.04;101426.94;5076878;28;20067;-77
2022/08/11 03:03:24;;;;;;;7.38;6.00;;;;;;;17.70;70.18;101418.63;5078006;28;20082;-79
2022/08/11 03:06:07;;;;;;;9.60;5.95;;;;;;;17.74;70.02;101425.22;5077746;28;20045;-79
2022/08/11 03:08:51;;;;;;;7.82;6.00;;;;;;;17.64;70.71;101424.63;5078490;28;20048;-80
2022/08/11 03:17:15;;;;;;;9.25;5.82;;;;;;;17.70;71.32;101430.03;5076642;28;20060;-78
2022/08/11 03:19:53;;;;;;;11.93;6.20;;;;;;;17.67;71.40;101434.88;5075373;28;20076;-78
2022/08/11 03:22:24;;;;;;;9.30;6.45;;;;;;;17.62;71.80;101435.41;5074872;28;20080;-79
2022/08/11 03:25:00;;;;;;;13.35;6.13;;;;;;;17.53;72.04;101441.78;5076002;28;20084;-79
2022/08/11 03:27:44;;;;;;;9.52;6.40;;;;;;;17.40;72.36;101436.31;5075580;28;20067;-79
2022/08/11 03:30:16;;;;;;;8.38;6.25;;;;;;;17.35;72.38;101436.03;5075996;28;20106;-79
2022/08/11 03:35:39;;;;;;;9.93;6.07;;;;;;;17.40;72.11;101438.97;5075836;28;20048;-79
2022/08/11 03:38:11;;;;;;;8.88;6.05;;;;;;;17.32;71.95;101429.28;5076181;28;20048;-79
2022/08/11 03:43:55;;;;;;;8.80;6.22;;;;;;;17.34;72.22;101434.38;5076230;28;20059;-77
2022/08/11 03:46:44;;;;;;;9.30;6.60;;;;;;;17.31;72.30;101429.47;5074843;28;20080;-78
2022/08/11 03:49:25;;;;;;;8.57;6.15;;;;;;;17.26;72.85;101437.94;5076964;28;20469;-79
2022/08/11 03:51:59;;;;;;;8.35;6.28;;;;;;;17.26;73.31;101440.56;5077388;28;20051;-78
2022/08/11 03:54:41;;;;;;;8.93;6.53;;;;;;;17.23;73.68;101438.28;5054436;28;20129;-79
2022/08/11 03:57:41;;;;;;;8.50;6.15;;;;;;;17.19;74.04;101450.22;5074932;28;20048;-77
2022/08/11 04:00:30;;;;;;;8.90;6.18;;;;;;;17.13;74.25;101437.72;5075499;28;20049;-77
2022/08/11 04:03:38;;;;;;;14.27;6.63;;;;;;;17.05;74.70;101443.88;5073089;28;20155;-78
2022/08/11 04:06:41;;;;;;;14.50;7.28;;;;;;;17.10;74.75;101443.34;5074111;28;20130;-79
2022/08/11 04:09:45;;;;;;;8.43;6.72;;;;;;;17.11;74.10;101439.72;5074074;28;20088;-78
2022/08/11 04:13:03;;;;;;;12.98;6.50;;;;;;;17.10;74.64;101448.66;5073665;28;20055;-78
2022/08/11 04:16:00;;;;;;;10.00;7.25;;;;;;;17.07;74.78;101438.44;5028880;28;20119;-78
2022/08/11 04:18:55;;;;;;;8.27;6.50;;;;;;;17.08;75.04;101442.72;5073193;28;20052;-78
2022/08/11 04:21:51;;;;;;;10.43;6.50;;;;;;;17.14;74.87;101449.94;5073931;28;20041;-78
2022/08/11 04:24:35;;;;;;;9.07;6.60;;;;;;;17.15;74.96;101446.28;5057181;28;20053;-78
2022/08/11 04:27:27;;;;;;;8.85;6.53;;;;;;;17.08;75.08;101448.00;5069665;28;20084;-77
2022/08/11 04:30:09;;;;;;;10.20;6.90;;;;;;;17.11;74.69;101445.81;5072345;28;20098;-77
2022/08/11 04:33:11;;;;;;;8.63;6.43;;;;;;;17.14;75.05;101449.94;5072964;28;20101;-77
2022/08/11 04:35:45;;;;;;;12.18;7.07;;;;;;;17.17;74.81;101457.50;5071677;28;20053;-77
2022/08/11 04:38:38;;;;;;;10.32;7.90;;;;;;;17.27;74.60;101450.16;5072301;28;20048;-78
2022/08/11 04:45:20;;;;;;;10.10;6.88;;;;;;;17.36;73.76;101448.25;5073378;28;20048;-77
2022/08/11 05:03:36;;;;;;;22.50;7.97;;;;;;;18.47;70.82;101458.66;5056768;28;20059;-77
2022/08/11 05:06:58;;;;;;;31.20;8.00;;;;;;;18.49;70.81;101451.34;5071868;28;20050;-76
2022/08/11 05:10:02;;;;;;;36.75;8.52;;;;;;;18.35;71.08;101447.75;5073461;28;20052;-79
2022/08/11 05:12:36;;;;;;;45.15;9.27;;;;;;;18.45;70.80;101455.38;5060802;28;20052;-76
2022/08/11 05:35:04;;;;;;;26.70;7.50;;;;;;;20.53;61.69;101441.28;5073089;28;20064;-77
2022/08/11 05:37:41;;;;;;;19.77;7.13;;;;;;;21.41;58.44;101440.06;5071293;28;20048;-77
2022/08/11 05:56:57;;;;;;;13.40;6.63;;;;;;;26.37;46.28;101456.50;5080212;28;20051;-79
2022/08/11 05:59:28;;;;;;;12.60;6.55;;;;;;;26.49;46.13;101459.91;5080316;28;20429;-79
2022/08/11 06:02:01;;;;;;;16.42;6.32;;;;;;;26.46;45.70;101463.09;5079307;28;20044;-79
2022/08/11 06:04:29;;;;;;;15.88;6.13;;;;;;;26.61;45.53;101460.66;5079996;28;20522;-78
2022/08/11 06:06:58;;;;;;;30.40;7.20;;;;;;;26.80;45.35;101455.88;5079323;28;20101;-79
2022/08/11 06:09:28;;;;;;;20.98;6.53;;;;;;;27.32;45.43;101448.38;5079237;28;20052;-79
2022/08/11 06:11:59;;;;;;;23.60;5.90;;;;;;;26.69;45.91;101449.53;5079413;28;20490;-79
2022/08/11 06:14:28;;;;;;;12.85;5.88;;;;;;;27.49;44.21;101444.81;5079692;28;20048;-79
2022/08/11 06:16:59;;;;;;;11.45;6.25;;;;;;;27.75;43.82;101453.00;5079084;28;20074;-79
2022/08/11 06:19:33;;;;;;;9.30;5.88;;;;;;;27.92;43.39;101441.34;5081756;28;20502;-79
2022/08/11 06:22:03;;;;;;;16.45;6.20;;;;;;;28.03;42.89;101441.22;5094301;28;20076;-83
2022/08/11 06:24:31;;;;;;;8.50;5.95;;;;;;;27.23;44.15;101444.50;5092864;28;20044;-79
2022/08/11 06:26:59;;;;;;;9.23;5.65;;;;;;;27.43;44.21;101439.38;5085042;28;20048;-79
2022/08/11 06:29:28;;;;;;;7.72;5.55;;;;;;;26.82;45.13;101455.66;5084931;28;20044;-80
2022/08/11 06:31:58;;;;;;;11.40;5.65;;;;;;;28.23;42.56;101447.94;5083953;28;20632;-79
2022/08/11 06:34:36;;;;;;;9.50;5.80;;;;;;;28.79;42.03;101441.16;5084061;28;20187;-79
2022/08/11 06:37:22;;;;;;;13.40;6.25;;;;;;;28.51;41.80;101444.16;5082246;28;20454;-79
2022/08/11 06:39:58;;;;;;;8.48;5.47;;;;;;;28.58;41.34;101453.63;5082277;28;20048;-80
2022/08/11 06:42:46;;;;;;;11.48;5.68;;;;;;;29.15;40.84;101450.34;5083541;28;20121;-80
2022/08/11 06:45:25;;;;;;;9.27;5.40;;;;;;;29.05;40.38;101448.38;5082820;28;20075;-79
2022/08/11 06:53:10;;;;;;;12.38;5.35;;;;;;;27.11;40.67;101459.88;5061342;28;20127;-81
2022/08/11 07:01:18;;;;;;;7.95;5.72;;;;;;;27.00;41.16;101455.41;5062059;28;20051;-81
2022/08/11 07:03:48;;;;;;;15.32;5.47;;;;;;;27.82;40.00;101452.81;5061973;28;20139;-82
2022/08/11 07:06:27;;;;;;;11.95;5.55;;;;;;;27.06;40.03;101443.69;5060808;28;20553;-82
2022/08/11 07:15:44;;;;;;;11.50;5.40;;;;;;;28.17;39.15;101433.56;5060677;28;20534;-81
2022/08/11 07:29:38;;;;;;;20.52;5.78;;;;;;;30.47;37.00;101448.16;5058737;28;20080;-81
2022/08/11 07:32:25;;;;;;;10.40;5.40;;;;;;;30.44;36.88;101451.41;5058341;28;20052;-82
2022/08/11 07:35:00;;;;;;;9.02;4.97;;;;;;;31.47;35.53;101450.25;5058177;28;20087;-81
2022/08/11 07:37:33;;;;;;;11.07;5.13;;;;;;;31.65;35.21;101442.34;5058899;28;20049;-81
2022/08/11 07:40:00;;;;;;;11.80;5.75;;;;;;;32.13;34.82;101444.56;5039435;28;20045;-81
2022/08/11 07:42:30;;;;;;;9.90;5.75;;;;;;;31.03;34.53;101437.34;5039188;28;20077;-83
2022/08/11 07:53:17;;;;;;;7.97;5.28;;;;;;;31.89;34.35;101431.69;5038745;28;20060;-80
2022/08/11 07:55:44;;;;;;;10.00;5.28;;;;;;;30.66;36.25;101426.88;5038902;28;20088;-80
2022/08/11 08:17:56;;;;;;;7.60;5.25;;;;;;;30.76;35.17;101426.84;5039461;28;20063;-80
2022/08/11 08:20:27;;;;;;;8.10;4.65;;;;;;;31.58;34.66;101428.31;5038401;28;20541;-80
2022/08/11 08:22:58;;;;;;;7.00;5.00;;;;;;;31.94;34.24;101425.44;5036929;28;20448;-79
2022/08/11 08:25:25;;;;;;;8.52;5.15;;;;;;;31.51;33.70;101425.09;5045045;28;20079;-80
2022/08/11 08:27:54;;;;;;;7.47;5.00;;;;;;;31.20;34.01;101418.13;5056177;28;20049;-80
2022/08/11 08:33:05;;;;;;;8.80;5.20;;;;;;;29.55;35.95;101430.09;5056330;28;20072;-80
2022/08/11 08:35:32;;;;;;;6.93;5.00;;;;;;;30.06;35.41;101431.09;5056355;28;20073;-80
2022/08/11 08:38:00;;;;;;;8.13;5.32;;;;;;;29.85;35.57;101429.38;5056800;28;20535;-80
2022/08/11 08:40:27;;;;;;;10.25;5.20;;;;;;;31.26;34.96;101430.56;5058046;28;20128;-80
2022/08/11 08:42:58;;;;;;;16.08;5.38;;;;;;;31.54;34.66;101423.72;5058211;28;20094;-81
2022/08/11 08:45:26;;;;;;;6.60;4.95;;;;;;;32.28;33.94;101441.75;5057381;28;20539;-80
2022/08/11 08:48:00;;;;;;;7.25;5.10;;;;;;;31.77;34.13;101433.91;5057214;28;20052;-81
2022/08/11 08:53:16;;;;;;;8.63;5.00;;;;;;;31.29;34.26;101430.00;5056733;28;20044;-81
2022/08/11 08:55:46;;;;;;;13.65;5.35;;;;;;;32.22;33.93;101426.63;5056148;28;20139;-82
2022/08/11 08:58:13;;;;;;;11.18;4.80;;;;;;;32.54;33.25;101426.94;5059197;28;20080;-81
2022/08/11 09:00:44;;;;;;;11.93;5.10;;;;;;;32.86;32.77;101429.09;5055333;28;20609;-81
2022/08/11 09:03:11;;;;;;;10.20;5.15;;;;;;;32.79;32.76;101436.75;5059016;28;20476;-81
2022/08/11 09:05:38;;;;;;;8.52;4.82;;;;;;;31.54;34.40;101421.00;5058561;28;20053;-81
2022/08/11 09:08:06;;;;;;;5.38;4.70;;;;;;;31.74;33.66;101433.66;5057219;28;20060;-80
2022/08/11 09:10:35;;;;;;;8.95;5.10;;;;;;;30.82;34.21;101436.56;5056378;28;20052;-81
2022/08/11 09:13:04;;;;;;;7.57;5.07;;;;;;;31.33;34.24;101434.59;5054138;28;20045;-80
2022/08/11 09:15:32;;;;;;;7.53;4.90;;;;;;;30.49;34.52;101431.69;5055223;28;20087;-82
2022/08/11 09:18:04;;;;;;;9.95;4.75;;;;;;;31.25;34.14;101424.34;5057133;28;20131;-82
2022/08/11 09:20:34;;;;;;;7.05;4.57;;;;;;;30.55;33.99;101431.44;5056400;28;20133;-80
2022/08/11 09:28:36;;;;;;;7.50;4.90;;;;;;;30.60;34.46;101433.34;5059718;28;20254;-81
2022/08/11 09:31:06;;;;;;;9.80;5.00;;;;;;;30.99;34.17;101420.88;5058672;28;20053;-81
2022/08/11 09:33:35;;;;;;;9.75;5.47;;;;;;;30.86;33.73;101426.03;5059211;28;20072;-82
2022/08/11 09:40:27;;;;;;;15.43;5.07;;;;;;;30.43;34.39;101422.78;5059316;28;20994;-82
2022/08/11 09:41:39;;;;;;;15.35;6.65;;;;;;;31.24;33.33;101421.91;5057087;28;20052;-81
2022/08/11 09:46:52;;;;;;;8.10;5.10;;;;;;;31.46;31.60;101408.06;5055011;28;20426;-80
2022/08/11 09:49:21;;;;;;;7.75;5.30;;;;;;;31.06;32.71;101419.78;5056342;28;20092;-81
2022/08/11 09:51:49;;;;;;;10.90;5.78;;;;;;;30.80;33.35;101416.31;5058876;28;20426;-81
2022/08/11 09:54:17;;;;;;;10.95;4.88;;;;;;;31.63;32.15;101408.53;5058500;28;20637;-81
2022/08/11 09:59:31;;;;;;;6.85;5.10;;;;;;;30.83;33.35;101407.66;5054434;28;20454;-81
2022/08/11 10:02:00;;;;;;;9.95;4.60;;;;;;;31.45;33.04;101403.75;5054042;28;20110;-81
2022/08/11 10:04:35;;;;;;;6.78;4.25;;;;;;;31.30;30.78;101416.22;5060004;28;20081;-81
2022/08/11 10:07:05;;;;;;;5.32;4.30;;;;;;;30.52;31.70;101407.66;5060167;28;20083;-82
2022/08/11 10:09:39;;;;;;;5.68;4.40;;;;;;;30.40;31.43;101400.91;5059535;28;20059;-81
2022/08/11 10:12:10;;;;;;;6.25;4.32;;;;;;;30.93;32.65;101397.63;5053265;28;20041;-81
2022/08/11 10:17:31;;;;;;;6.63;4.28;;;;;;;30.55;31.83;101392.81;5057090;28;20134;-81
2022/08/11 10:20:02;;;;;;;8.25;4.53;;;;;;;30.78;30.99;101386.84;5058828;28;20053;-81
2022/08/11 10:28:03;;;;;;;12.05;4.65;;;;;;;30.99;31.33;101382.22;5059893;28;20115;-82
2022/08/11 10:36:04;;;;;;;8.55;4.47;;;;;;;31.54;31.70;101370.44;5058151;28;20106;-82
2022/08/11 10:38:32;;;;;;;6.03;4.60;;;;;;;31.05;31.94;101370.31;5057427;28;20045;-80
2022/08/11 10:43:47;;;;;;;7.93;4.80;;;;;;;31.52;31.38;101363.69;5049479;28;20064;-82
2022/08/11 10:48:59;;;;;;;6.13;4.78;;;;;;;31.19;31.87;101354.38;5053326;28;20140;-81
2022/08/11 10:59:43;;;;;;;6.60;4.60;;;;;;;30.85;32.45;101343.34;5052201;28;20072;-82
2022/08/11 11:02:14;;;;;;;9.00;4.80;;;;;;;30.20;33.04;101350.41;5048950;28;20068;-81
2022/08/11 11:04:57;;;;;;;5.40;4.90;;;;;;;30.44;32.80;101337.16;5048288;28;20216;-82
2022/08/11 11:07:30;;;;;;;8.93;5.22;;;;;;;30.60;32.79;101328.81;5049759;28;20041;-81
2022/08/11 11:10:01;;;;;;;8.18;4.90;;;;;;;31.10;33.00;101329.75;5049795;28;20106;-80
2022/08/11 11:18:08;;;;;;;8.82;5.00;;;;;;;31.11;32.11;101309.75;5048292;28;20189;-81
2022/08/11 11:20:40;;;;;;;8.35;4.63;;;;;;;31.50;31.94;101317.97;5043887;28;20063;-81
2022/08/11 11:23:12;;;;;;;11.10;4.80;;;;;;;31.55;31.63;101317.13;5055161;28;20567;-81
2022/08/11 11:26:06;;;;;;;7.07;4.68;;;;;;;31.23;31.48;101312.97;5055423;28;20103;-79
2022/08/11 11:28:46;;;;;;;8.70;4.57;;;;;;;30.74;31.77;101303.91;5053640;28;20049;-81
2022/08/11 11:31:30;;;;;;;6.20;4.63;;;;;;;30.75;31.83;101308.22;5050994;28;20048;-78
2022/08/11 11:34:18;;;;;;;5.13;4.50;;;;;;;31.49;32.15;101300.13;5058716;28;20136;-80
2022/08/11 11:36:48;;;;;;;10.75;5.03;;;;;;;32.14;31.69;101294.56;5057159;28;20080;-80
2022/08/11 11:39:19;;;;;;;6.53;4.60;;;;;;;32.31;30.76;101297.66;5056305;28;20072;-79
2022/08/11 11:41:46;;;;;;;15.85;5.60;;;;;;;31.94;30.74;101292.81;5043221;28;20049;-80
2022/08/11 11:44:15;;;;;;;5.80;4.40;;;;;;;31.47;30.95;101290.69;5038178;28;20045;-79
2022/08/11 11:46:45;;;;;;;5.78;4.35;;;;;;;31.47;31.09;101291.47;5047158;28;20076;-80
2022/08/11 11:49:14;;;;;;;7.47;4.65;;;;;;;31.19;31.21;101295.69;5057410;28;20135;-82
2022/08/11 11:51:41;;;;;;;5.40;4.50;;;;;;;31.29;31.04;101286.72;5049656;28;20084;-79
2022/08/11 11:54:09;;;;;;;10.13;4.82;;;;;;;31.30;31.01;101283.72;5055625;28;20091;-79
2022/08/11 11:56:38;;;;;;;6.72;4.78;;;;;;;31.28;31.59;101275.09;5050451;28;20053;-80
2022/08/11 12:01:56;;;;;;;6.88;4.53;;;;;;;31.63;30.68;101271.38;5047339;28;20501;-80
2022/08/11 12:04:24;;;;;;;4.88;4.22;;;;;;;31.56;30.96;101276.28;5047435;28;20081;-81
2022/08/11 12:08:08;;;;;;;6.38;4.60;;;;;;;31.65;30.02;101276.50;5045621;28;20569;-81
2022/08/11 12:09:40;;;;;;;9.00;4.68;;;;;;;31.49;30.73;101270.38;5048030;28;20159;-81
2022/08/11 12:14:54;;;;;;;7.88;4.50;;;;;;;31.32;30.29;101257.22;5048215;28;20095;-80
2022/08/11 12:17:23;;;;;;;5.78;4.72;;;;;;;31.14;30.58;101255.16;5048865;28;20056;-82
2022/08/11 12:19:50;;;;;;;9.18;4.80;;;;;;;31.10;31.12;101248.66;5047774;28;20049;-81
2022/08/11 12:27:58;;;;;;;8.05;4.57;;;;;;;31.25;30.65;101239.69;5037856;28;20147;-82
2022/08/11 12:30:25;;;;;;;8.30;4.80;;;;;;;31.33;30.86;101231.78;5045583;28;20051;-82
2022/08/11 12:32:53;;;;;;;5.63;5.10;;;;;;;31.46;30.78;101245.78;5058897;28;20073;-81
2022/08/11 12:35:20;;;;;;;8.82;4.82;;;;;;;31.24;30.49;101244.28;5058061;28;20052;-80
2022/08/11 12:37:54;;;;;;;7.80;4.90;;;;;;;31.17;30.70;101230.28;5058514;28;20491;-82
2022/08/11 12:46:00;;;;;;;12.48;5.05;;;;;;;31.72;30.61;101206.66;5062191;28;20135;-81
2022/08/11 12:54:10;;;;;;;6.28;5.00;;;;;;;31.59;30.02;101196.47;5039842;28;20056;-79
2022/08/11 13:05:01;;;;;;;8.68;5.22;;;;;;;31.59;30.30;101191.06;5034759;28;20110;-79
2022/08/11 13:07:31;;;;;;;7.13;4.55;;;;;;;31.67;29.97;101202.09;5030878;28;20128;-79
2022/08/11 13:10:00;;;;;;;5.70;4.70;;;;;;;31.96;30.01;101190.47;5038736;28;20062;-79
2022/08/11 13:12:49;;;;;;;9.00;5.07;;;;;;;31.73;29.93;101185.81;5038936;28;20515;-78
2022/08/11 13:15:18;;;;;;;7.32;5.00;;;;;;;31.67;29.80;101182.31;5017490;28;20067;-79
2022/08/11 13:17:46;;;;;;;9.05;4.95;;;;;;;31.68;29.13;101189.38;5026322;28;20073;-80
2022/08/11 13:20:20;;;;;;;7.50;4.55;;;;;;;31.68;29.58;101179.34;5040304;28;20049;-78
2022/08/11 13:22:50;;;;;;;10.85;4.93;;;;;;;31.83;29.36;101178.41;5046072;28;20054;-81
2022/08/11 13:25:19;;;;;;;8.25;4.75;;;;;;;31.73;29.44;101175.78;5051833;28;20049;-80
2022/08/11 13:27:48;;;;;;;6.95;5.07;;;;;;;31.80;29.67;101170.88;5049831;28;20140;-79
2022/08/11 13:33:02;;;;;;;6.07;4.60;;;;;;;31.81;29.36;101168.97;5048646;28;20142;-78
2022/08/11 13:35:31;;;;;;;8.23;4.90;;;;;;;31.98;29.34;101162.03;5041676;28;20072;-79
2022/08/11 13:38:01;;;;;;;9.48;4.90;;;;;;;31.99;29.31;101163.66;5034646;28;20077;-79
2022/08/11 13:40:29;;;;;;;12.27;5.53;;;;;;;31.74;29.83;101163.06;5033914;28;20053;-82
2022/08/11 13:42:56;;;;;;;7.30;5.05;;;;;;;32.17;29.37;101155.88;5032736;28;20500;-80
2022/08/11 13:45:24;;;;;;;11.30;5.15;;;;;;;32.04;29.10;101154.69;5033738;28;20419;-79
2022/08/11 13:47:52;;;;;;;7.03;5.10;;;;;;;31.98;29.77;101156.63;5030874;28;20559;-78
2022/08/11 13:50:20;;;;;;;8.85;5.45;;;;;;;31.73;29.87;101154.16;5030822;28;20096;-79
2022/08/11 13:52:49;;;;;;;8.05;4.60;;;;;;;31.79;29.69;101144.09;5032611;28;20061;-78
2022/08/11 13:55:22;;;;;;;7.20;4.68;;;;;;;31.94;29.76;101150.16;5031789;28;20107;-81
2022/08/11 13:57:52;;;;;;;8.43;5.00;;;;;;;32.05;29.51;101147.38;5032619;28;20076;-80
2022/08/11 14:00:20;;;;;;;5.57;4.85;;;;;;;31.87;29.48;101143.47;5032017;28;20073;-79
2022/08/11 14:02:51;;;;;;;5.60;4.72;;;;;;;32.06;29.10;101143.56;5028473;28;20472;-78
2022/08/11 14:05:24;;;;;;;8.07;5.20;;;;;;;32.15;29.64;101139.09;5029903;28;20458;-80
2022/08/11 14:07:55;;;;;;;7.75;4.72;;;;;;;32.02;29.49;101129.00;5044431;28;20103;-79
2022/08/11 14:10:27;;;;;;;6.25;4.90;;;;;;;32.06;29.93;101140.84;5032114;28;20414;-78
2022/08/11 14:15:46;;;;;;;6.97;4.63;;;;;;;31.95;29.75;101140.97;5031686;28;20079;-78
2022/08/11 14:18:18;;;;;;;7.25;4.95;;;;;;;31.82;30.19;101130.81;5034640;28;20053;-78
2022/08/11 14:23:40;;;;;;;8.18;5.00;;;;;;;31.59;30.13;101118.84;5034625;28;20060;-79
2022/08/11 14:26:25;;;;;;;7.13;4.93;;;;;;;31.74;30.45;101117.88;5034923;28;20099;-78
2022/08/11 14:28:53;;;;;;;7.15;4.97;;;;;;;31.65;30.42;101125.81;5021370;28;20085;-79
2022/08/11 14:31:22;;;;;;;15.18;5.72;;;;;;;31.61;30.21;101122.06;5024616;28;20488;-81
2022/08/11 14:33:49;;;;;;;8.82;5.78;;;;;;;31.82;31.13;101108.34;5016453;28;20077;-82
2022/08/11 14:36:16;;;;;;;8.50;4.70;;;;;;;31.80;30.21;101113.22;5031755;28;20104;-79
2022/08/11 14:38:45;;;;;;;7.13;5.22;;;;;;;31.70;30.28;101105.22;5027152;28;20057;-77
2022/08/11 14:47:07;;;;;;;7.15;4.80;;;;;;;32.00;30.83;101100.31;5030255;28;20057;-77
2022/08/11 14:49:38;;;;;;;10.32;5.22;;;;;;;32.04;30.66;101091.63;5027531;28;20053;-79
2022/08/11 14:52:09;;;;;;;8.25;5.00;;;;;;;31.68;30.79;101083.84;5017654;28;20133;-78
2022/08/11 14:57:23;;;;;;;9.55;4.93;;;;;;;31.80;30.25;101095.09;5025160;28;20053;-77
2022/08/11 14:59:52;;;;;;;7.10;5.10;;;;;;;31.98;30.16;101082.75;5035339;28;20068;-79
2022/08/11 15:05:06;;;;;;;6.15;4.90;;;;;;;32.02;29.93;101088.38;5028203;28;20060;-78
2022/08/11 15:07:34;;;;;;;6.55;5.00;;;;;;;31.78;30.51;101080.25;5014598;28;20133;-77
2022/08/11 15:10:05;;;;;;;5.95;5.22;;;;;;;31.72;29.88;101062.44;5028651;28;20405;-79
2022/08/11 15:12:34;;;;;;;6.80;5.10;;;;;;;31.86;30.33;101076.91;5034167;28;20147;-79
2022/08/11 15:17:49;;;;;;;5.88;4.78;;;;;;;31.98;30.56;101072.72;5026172;28;20096;-80
2022/08/11 15:25:56;;;;;;;8.70;5.07;;;;;;;32.03;30.51;101073.75;5027922;28;20511;-78
2022/08/11 15:45:46;;;;;;;6.15;5.50;;;;;;;31.70;29.76;101051.91;5029654;28;20060;-81
2022/08/11 15:48:02;;;;;;;6.53;4.65;;;;;;;31.66;28.84;101048.97;5030419;28;20542;-77
2022/08/11 15:50:33;;;;;;;7.03;4.88;;;;;;;31.87;29.09;101046.84;5020628;28;20087;-78
2022/08/11 15:53:06;;;;;;;10.80;4.93;;;;;;;31.84;29.28;101046.63;5021650;28;20045;-79
2022/08/11 15:55:35;;;;;;;5.53;4.93;;;;;;;31.83;29.29;101040.41;5025402;28;20050;-82
2022/08/11 16:06:33;;;;;;;6.93;4.72;;;;;;;31.83;29.40;101024.19;5030468;28;20118;-80
2022/08/11 16:09:04;;;;;;;6.95;4.70;;;;;;;31.75;29.44;101024.81;5022249;28;20120;-78
2022/08/11 16:11:33;;;;;;;7.83;5.07;;;;;;;31.77;29.95;101025.31;5023068;28;20152;-78
2022/08/11 16:16:49;;;;;;;8.88;5.43;;;;;;;31.64;29.99;101010.56;5031769;28;20060;-77
2022/08/11 16:19:20;;;;;;;7.95;4.95;;;;;;;31.81;29.81;101023.66;5033444;28;20488;-82
2022/08/11 16:21:51;;;;;;;7.85;4.90;;;;;;;31.93;30.14;101020.53;5031561;28;20108;-78
2022/08/11 16:24:21;;;;;;;7.07;5.18;;;;;;;31.90;29.69;101013.81;5033919;28;20156;-84
2022/08/11 16:26:49;;;;;;;7.30;5.00;;;;;;;31.75;30.19;101010.47;5034539;28;20057;-78
2022/08/11 16:29:20;;;;;;;6.40;5.22;;;;;;;31.60;30.62;101003.31;5032961;28;20045;-79
2022/08/11 16:40:08;;;;;;;7.28;5.20;;;;;;;31.63;30.33;101008.97;4996414;28;20057;-79
2022/08/11 16:48:08;;;;;;;8.70;5.00;;;;;;;31.46;30.75;100996.97;5027173;28;20131;-82
2022/08/11 16:50:35;;;;;;;5.90;5.07;;;;;;;31.34;31.09;100990.06;5029490;28;20136;-78
2022/08/11 16:53:03;;;;;;;7.30;5.40;;;;;;;31.42;30.53;100990.53;5038475;28;20052;-80
2022/08/11 16:55:33;;;;;;;7.97;5.35;;;;;;;31.21;31.02;100989.91;5037567;28;20514;-81